createdAt,value
2022-12-15T00:00:25.427Z,-4.80
2022-12-15T00:03:11.710Z,-4.40
2022-12-15T00:05:58.403Z,-4.70
2022-12-15T00:08:45.050Z,-4.70
2022-12-15T00:11:30.931Z,-4.80
2022-12-15T00:14:17.172Z,-4.60
2022-12-15T00:17:03.400Z,-4.60
2022-12-15T00:19:49.213Z,-4.40
2022-12-15T00:22:35.823Z,-4.50
2022-12-15T00:25:22.156Z,-4.80
2022-12-15T00:28:08.141Z,-4.70
2022-12-15T00:31:00.529Z,-5.40
2022-12-15T00:33:48.389Z,-4.80
2022-12-15T00:36:34.409Z,-4.90
2022-12-15T00:39:03.960Z,-5.20
2022-12-15T00:41:31.888Z,-4.70
2022-12-15T00:43:59.355Z,-5.20
2022-12-15T00:46:45.423Z,-5.20
2022-12-15T00:49:31.416Z,-5.10
2022-12-15T00:52:17.533Z,-4.60
2022-12-15T00:55:03.779Z,-4.00
2022-12-15T00:57:49.688Z,-4.50
2022-12-15T01:00:35.866Z,-4.80
2022-12-15T01:03:39.198Z,-4.80
2022-12-15T01:06:31.641Z,-4.50
2022-12-15T01:09:17.916Z,-4.30
2022-12-15T01:12:04.042Z,-4.80
2022-12-15T01:14:51.550Z,-4.20
2022-12-15T01:17:38.532Z,-4.80
2022-12-15T01:20:18.392Z,-4.80
2022-12-15T01:22:50.640Z,-4.80
2022-12-15T01:25:20.241Z,-4.40
2022-12-15T01:27:47.831Z,-4.60
2022-12-15T01:30:18.260Z,-5.10
2022-12-15T01:32:46.472Z,-4.70
2022-12-15T01:35:14.688Z,-4.70
2022-12-15T01:37:42.207Z,-4.30
2022-12-15T01:40:32.677Z,-4.30
2022-12-15T01:42:59.989Z,-2.70
2022-12-15T01:45:27.225Z,-4.20
2022-12-15T01:48:00.954Z,-4.70
2022-12-15T01:50:29.740Z,-5.00
2022-12-15T01:52:59.508Z,-4.90
2022-12-15T01:55:29.893Z,-4.90
2022-12-15T01:58:02.828Z,-5.00
2022-12-15T02:00:30.988Z,-5.00
2022-12-15T02:03:01.334Z,-4.80
2022-12-15T02:05:31.832Z,-4.90
2022-12-15T02:08:00.733Z,-5.00
2022-12-15T02:11:00.226Z,-5.00
2022-12-15T02:13:32.493Z,-4.70
2022-12-15T02:16:23.033Z,-5.10
2022-12-15T02:19:15.708Z,-4.50
2022-12-15T02:21:56.708Z,-4.70
2022-12-15T02:24:51.867Z,-5.20
2022-12-15T02:27:34.733Z,-4.70
2022-12-15T02:30:15.330Z,-4.80
2022-12-15T02:33:15.132Z,-4.60
2022-12-15T02:35:49.229Z,-5.00
2022-12-15T02:38:27.476Z,-5.10
2022-12-15T02:40:59.747Z,-4.80
2022-12-15T02:43:29.442Z,-5.40
2022-12-15T02:46:07.108Z,-5.00
2022-12-15T02:48:37.546Z,-4.90
2022-12-15T02:51:41.028Z,-5.00
2022-12-15T02:54:17.543Z,-4.80
2022-12-15T02:56:55.650Z,-4.90
2022-12-15T02:59:45.576Z,-4.70
2022-12-15T03:02:15.420Z,-4.60
2022-12-15T03:04:43.369Z,-4.40
2022-12-15T03:07:11.168Z,-4.00
2022-12-15T03:09:38.663Z,-5.00
2022-12-15T03:12:06.767Z,-4.40
2022-12-15T03:14:34.437Z,-3.80
2022-12-15T03:17:02.012Z,-4.60
2022-12-15T03:19:29.467Z,-4.60
2022-12-15T03:21:56.989Z,-4.90
2022-12-15T03:24:24.389Z,-4.90
2022-12-15T03:26:51.961Z,-5.00
2022-12-15T03:29:19.443Z,-4.80
2022-12-15T03:31:49.905Z,-4.90
2022-12-15T03:34:18.382Z,-5.20
2022-12-15T03:36:45.755Z,-4.80
2022-12-15T03:39:13.202Z,-4.90
2022-12-15T03:41:41.787Z,-4.90
2022-12-15T03:44:09.394Z,-5.00
2022-12-15T03:46:36.822Z,-4.90
2022-12-15T03:49:04.478Z,-5.00
2022-12-15T03:51:31.957Z,-5.00
2022-12-15T03:53:59.418Z,-5.40
2022-12-15T03:56:27.900Z,-5.00
2022-12-15T03:58:55.253Z,-5.10
2022-12-15T04:01:33.892Z,-5.10
2022-12-15T04:04:02.504Z,-5.20
2022-12-15T04:06:30.796Z,-5.10
2022-12-15T04:08:58.364Z,-5.20
2022-12-15T04:11:25.922Z,-5.30
2022-12-15T04:13:53.383Z,-5.00
2022-12-15T04:16:20.833Z,-5.20
2022-12-15T04:19:08.505Z,-5.00
2022-12-15T04:21:35.947Z,-3.20
2022-12-15T04:24:22.208Z,-4.90
2022-12-15T04:27:08.356Z,-4.70
2022-12-15T04:29:54.365Z,-4.90
2022-12-15T04:32:40.810Z,-4.80
2022-12-15T04:35:27.785Z,-4.90
2022-12-15T04:38:14.872Z,-4.80
2022-12-15T04:41:00.991Z,-5.00
2022-12-15T04:43:46.957Z,-5.00
2022-12-15T04:46:33.102Z,-4.90
2022-12-15T04:49:19.256Z,-4.80
2022-12-15T04:52:05.548Z,-4.80
2022-12-15T04:54:51.766Z,-4.80
2022-12-15T04:57:38.001Z,-4.70
2022-12-15T05:00:24.539Z,-4.70
2022-12-15T05:03:16.556Z,-5.50
2022-12-15T05:06:04.590Z,-4.90
2022-12-15T05:08:50.956Z,-4.90
2022-12-15T05:11:37.059Z,-5.00
2022-12-15T05:14:23.898Z,-4.90
2022-12-15T05:17:10.155Z,-4.80
2022-12-15T05:19:56.037Z,-4.70
2022-12-15T05:22:42.289Z,-4.80
2022-12-15T05:25:28.515Z,-4.20
2022-12-15T05:28:15.208Z,-4.60
2022-12-15T05:31:01.443Z,-4.50
2022-12-15T05:33:29.251Z,-4.00
2022-12-15T05:35:58.182Z,-4.60
2022-12-15T05:38:25.577Z,-4.80
2022-12-15T05:40:53.056Z,-4.70
2022-12-15T05:43:26.053Z,-5.60
2022-12-15T05:45:53.924Z,-4.80
2022-12-15T05:48:21.675Z,-4.80
2022-12-15T05:50:48.984Z,-4.30
2022-12-15T05:53:17.444Z,-3.20
2022-12-15T05:55:44.822Z,-4.90
2022-12-15T05:58:12.182Z,-3.70
2022-12-15T06:00:39.794Z,-4.60
2022-12-15T06:03:07.524Z,-4.90
2022-12-15T06:05:35.029Z,-4.10
2022-12-15T06:08:02.818Z,-4.40
2022-12-15T06:10:30.977Z,-4.10
2022-12-15T06:12:58.373Z,-4.40
2022-12-15T06:15:25.835Z,-4.40
2022-12-15T06:17:56.004Z,-2.20
2022-12-15T06:20:24.591Z,-3.50
2022-12-15T06:22:52.477Z,-3.50
2022-12-15T06:25:20.337Z,-4.60
2022-12-15T06:27:47.957Z,-4.50
2022-12-15T06:30:16.499Z,-4.50
2022-12-15T06:32:43.959Z,-4.90
2022-12-15T06:35:11.413Z,-4.10
2022-12-15T06:37:39.392Z,-4.60
2022-12-15T06:40:08.417Z,-5.40
2022-12-15T06:42:36.014Z,-4.40
2022-12-15T06:45:04.209Z,-4.50
2022-12-15T06:47:31.681Z,-4.50
2022-12-15T06:49:59.325Z,-1.40
2022-12-15T06:52:26.793Z,-4.90
2022-12-15T06:54:54.333Z,-4.10
2022-12-15T06:57:22.050Z,-5.20
2022-12-15T06:59:49.989Z,-4.70
2022-12-15T07:02:21.191Z,-4.00
2022-12-15T07:04:51.672Z,-2.80
2022-12-15T07:07:19.540Z,-4.50
2022-12-15T07:09:47.088Z,-4.00
2022-12-15T07:12:14.962Z,-4.80
2022-12-15T07:14:42.518Z,-4.40
2022-12-15T07:17:13.454Z,-4.70
2022-12-15T07:19:40.935Z,-4.90
2022-12-15T07:22:08.473Z,-4.40
2022-12-15T07:24:36.019Z,-4.80
2022-12-15T07:27:03.623Z,-2.40
2022-12-15T07:29:31.285Z,-4.50
2022-12-15T07:32:01.169Z,-4.30
2022-12-15T07:34:29.047Z,-3.30
2022-12-15T07:36:56.588Z,-5.30
2022-12-15T07:39:24.673Z,-4.80
2022-12-15T07:41:52.274Z,-4.50
2022-12-15T07:44:19.926Z,-4.90
2022-12-15T07:46:50.107Z,-5.50
2022-12-15T07:49:18.422Z,-5.60
2022-12-15T07:51:46.337Z,-2.50
2022-12-15T07:54:22.424Z,-5.20
2022-12-15T07:56:50.721Z,-6.50
2022-12-15T07:59:18.376Z,-4.70
2022-12-15T08:01:49.467Z,-5.50
2022-12-15T08:04:22.859Z,-5.30
2022-12-15T08:06:54.634Z,-5.50
2022-12-15T08:09:22.870Z,-2.70
2022-12-15T08:11:50.953Z,-1.70
2022-12-15T08:14:19.735Z,-4.80
2022-12-15T08:16:52.813Z,-2.80
2022-12-15T08:19:29.077Z,-5.30
2022-12-15T08:21:56.740Z,-4.60
2022-12-15T08:24:24.935Z,-2.80
2022-12-15T08:26:53.820Z,-2.50
2022-12-15T08:29:50.049Z,-4.60
2022-12-15T08:32:14.760Z,-4.80
2022-12-15T08:34:44.122Z,-4.70
2022-12-15T08:37:12.647Z,-4.60
2022-12-15T08:39:43.650Z,-3.10
2022-12-15T08:42:44.320Z,-6.90
2022-12-15T08:45:15.354Z,-4.80
2022-12-15T08:47:43.518Z,-4.70
2022-12-15T08:50:10.932Z,-4.70
2022-12-15T08:52:55.309Z,-5.30
2022-12-15T08:55:29.623Z,-5.50
2022-12-15T08:57:58.116Z,-4.80
2022-12-15T09:00:26.351Z,-4.80
2022-12-15T09:03:23.971Z,-4.70
2022-12-15T09:05:51.766Z,-3.60
2022-12-15T09:08:19.497Z,-4.60
2022-12-15T09:11:30.372Z,-3.20
2022-12-15T09:13:59.531Z,-4.60
2022-12-15T09:16:28.369Z,-4.40
2022-12-15T09:18:58.922Z,-3.90
2022-12-15T09:21:30.359Z,-3.40
2022-12-15T09:24:02.109Z,-4.40
2022-12-15T09:26:35.198Z,-2.40
2022-12-15T09:29:07.294Z,-4.90
2022-12-15T09:31:39.231Z,-4.50
2022-12-15T09:34:30.062Z,-6.30
2022-12-15T09:38:18.059Z,-4.80
2022-12-15T09:40:46.839Z,-4.80
2022-12-15T09:43:46.070Z,-5.50
2022-12-15T09:46:42.426Z,-1.40
2022-12-15T09:49:35.955Z,-4.90
2022-12-15T09:52:11.424Z,-5.30
2022-12-15T09:54:42.115Z,-5.30
2022-12-15T09:57:26.002Z,-4.50
2022-12-15T09:59:56.618Z,-5.20
2022-12-15T10:02:40.037Z,-5.50
2022-12-15T10:05:57.754Z,-6.30
2022-12-15T10:08:23.039Z,-5.50
2022-12-15T10:10:55.976Z,-5.70
2022-12-15T10:13:35.666Z,-5.60
2022-12-15T10:16:19.280Z,-5.30
2022-12-15T10:19:01.214Z,-5.60
2022-12-15T10:21:32.323Z,-6.10
2022-12-15T10:24:12.852Z,-6.40
2022-12-15T10:26:42.900Z,-5.00
2022-12-15T10:29:24.617Z,-5.70
2022-12-15T10:32:09.625Z,-5.50
2022-12-15T10:34:40.650Z,-4.90
2022-12-15T10:37:16.829Z,-5.40
2022-12-15T10:39:50.109Z,-5.00
2022-12-15T10:42:27.462Z,-4.00
2022-12-15T10:45:02.828Z,-5.80
2022-12-15T10:47:33.243Z,-2.70
2022-12-15T10:50:24.987Z,-4.80
2022-12-15T10:52:52.981Z,-4.80
2022-12-15T10:55:41.970Z,-2.70
2022-12-15T10:58:27.754Z,-2.70
2022-12-15T11:01:16.219Z,-3.60
2022-12-15T11:03:44.728Z,-4.70
2022-12-15T11:06:22.255Z,-5.20
2022-12-15T11:08:53.900Z,-4.60
2022-12-15T11:11:50.759Z,-0.80
2022-12-15T11:14:26.076Z,-2.80
2022-12-15T11:17:07.702Z,-4.50
2022-12-15T11:19:53.944Z,-4.10
2022-12-15T11:23:10.264Z,-4.40
2022-12-15T11:25:47.415Z,-4.30
2022-12-15T11:28:30.489Z,-2.70
2022-12-15T11:31:08.279Z,-4.30
2022-12-15T11:33:36.435Z,-4.90
2022-12-15T11:36:13.621Z,-4.10
2022-12-15T11:38:54.509Z,-5.30
2022-12-15T11:41:52.326Z,-5.20
2022-12-15T11:44:37.935Z,-4.80
2022-12-15T11:47:30.548Z,-1.70
2022-12-15T11:50:24.682Z,-4.70
2022-12-15T11:53:13.417Z,-4.80
2022-12-15T11:56:30.359Z,-5.80
2022-12-15T12:00:09.380Z,-6.40
2022-12-15T12:02:57.421Z,-5.80
2022-12-15T12:05:50.729Z,-6.30
2022-12-15T12:08:39.350Z,-8.30
2022-12-15T12:11:46.213Z,-6.50
2022-12-15T12:14:45.031Z,-7.20
2022-12-15T12:17:36.370Z,-5.80
2022-12-15T12:20:24.508Z,-5.70
2022-12-15T12:22:52.592Z,-6.20
2022-12-15T12:25:24.345Z,-6.80
2022-12-15T12:28:04.606Z,-6.00
2022-12-15T12:30:42.833Z,-5.60
2022-12-15T12:33:20.722Z,-6.00
2022-12-15T12:35:55.284Z,-6.20
2022-12-15T12:38:31.560Z,-5.80
2022-12-15T12:41:09.751Z,-6.20
2022-12-15T12:43:50.514Z,-6.20
2022-12-15T12:46:27.196Z,-5.80
2022-12-15T12:49:20.125Z,-4.70
2022-12-15T12:51:58.727Z,-5.60
2022-12-15T12:54:45.989Z,-6.10
2022-12-15T12:57:44.899Z,-5.80
2022-12-15T13:00:17.798Z,-5.80
2022-12-15T13:02:55.983Z,-6.50
2022-12-15T13:05:31.644Z,-5.80
2022-12-15T13:08:13.238Z,-5.90
2022-12-15T13:10:43.163Z,-2.40
2022-12-15T13:13:29.351Z,-6.00
2022-12-15T13:16:31.189Z,-5.90
2022-12-15T13:19:08.971Z,-6.10
2022-12-15T13:21:43.270Z,-6.30
2022-12-15T13:24:35.247Z,-5.90
2022-12-15T13:27:17.187Z,-6.30
2022-12-15T13:29:57.048Z,-6.10
2022-12-15T13:32:33.545Z,-6.60
2022-12-15T13:35:14.576Z,-6.40
2022-12-15T13:40:38.074Z,-7.50
2022-12-15T13:43:06.064Z,-7.00
2022-12-15T13:45:57.743Z,-7.10
2022-12-15T13:48:26.396Z,-6.50
2022-12-15T13:51:24.356Z,-7.50
2022-12-15T13:54:00.438Z,-7.10
2022-12-15T13:56:51.341Z,-7.50
2022-12-15T13:59:40.135Z,-7.30
2022-12-15T14:02:23.787Z,-7.20
2022-12-15T14:05:04.791Z,-7.10
2022-12-15T14:07:33.498Z,-7.80
2022-12-15T14:10:01.481Z,-7.40
2022-12-15T14:12:29.689Z,-7.80
2022-12-15T14:14:57.127Z,-7.20
2022-12-15T14:17:25.591Z,-7.00
2022-12-15T14:19:53.216Z,-8.00
2022-12-15T14:22:28.588Z,-7.70
2022-12-15T14:25:04.229Z,-8.40
2022-12-15T14:27:34.072Z,-7.60
2022-12-15T14:30:22.612Z,-7.60
2022-12-15T14:32:54.645Z,-6.90
2022-12-15T14:35:40.062Z,-7.90
2022-12-15T14:38:14.324Z,-7.30
2022-12-15T14:40:43.062Z,-8.10
2022-12-15T14:43:21.935Z,-7.80
2022-12-15T14:45:57.332Z,-8.00
2022-12-15T14:48:41.523Z,-7.80
2022-12-15T14:51:13.258Z,-8.60
2022-12-15T14:53:43.413Z,-7.70
2022-12-15T14:56:14.949Z,-7.90
2022-12-15T14:58:42.580Z,-7.90
2022-12-15T15:01:41.109Z,-8.10
2022-12-15T15:03:05.496Z,-6.70
2022-12-15T15:04:28.791Z,-7.10
2022-12-15T15:06:59.307Z,-7.70
2022-12-15T15:09:28.720Z,-7.90
2022-12-15T15:12:09.580Z,-7.30
2022-12-15T15:14:40.133Z,-7.80
2022-12-15T15:17:13.991Z,-8.40
2022-12-15T15:19:49.516Z,-7.50
2022-12-15T15:22:28.897Z,-8.10
2022-12-15T15:24:56.331Z,-8.10
2022-12-15T15:27:30.158Z,-7.80
2022-12-15T15:30:16.629Z,-5.80
2022-12-15T15:32:51.985Z,-7.70
2022-12-15T15:35:20.267Z,-7.70
2022-12-15T15:37:47.787Z,-7.70
2022-12-15T15:40:17.159Z,-7.10
2022-12-15T15:42:45.579Z,-7.50
2022-12-15T15:45:16.082Z,-7.90
2022-12-15T15:47:47.872Z,-7.70
2022-12-15T15:50:20.417Z,-7.80
2022-12-15T15:52:48.370Z,-6.20
2022-12-15T15:55:24.855Z,-6.80
2022-12-15T15:57:52.238Z,-7.80
2022-12-15T16:00:23.049Z,-8.30
2022-12-15T16:02:51.193Z,-6.90
2022-12-15T16:05:18.810Z,-7.90
2022-12-15T16:07:46.979Z,-7.20
2022-12-15T16:10:17.719Z,-8.20
2022-12-15T16:12:50.773Z,-7.70
2022-12-15T16:15:25.983Z,-7.80
2022-12-15T16:17:54.672Z,-7.60
2022-12-15T16:20:25.726Z,-8.30
2022-12-15T16:23:13.835Z,-7.80
2022-12-15T16:25:52.958Z,-7.80
2022-12-15T16:28:31.720Z,-7.70
2022-12-15T16:30:59.576Z,-6.60
2022-12-15T16:33:27.773Z,-7.60
2022-12-15T16:35:55.420Z,-7.70
2022-12-15T16:38:30.093Z,-7.70
2022-12-15T16:41:04.361Z,-7.30
2022-12-15T16:43:37.262Z,-7.60
2022-12-15T16:46:07.629Z,-7.50
2022-12-15T16:48:35.878Z,-7.20
2022-12-15T16:51:07.816Z,-8.50
2022-12-15T16:53:39.224Z,-8.80
2022-12-15T16:56:07.927Z,-7.90
2022-12-15T16:58:36.179Z,-7.90
2022-12-15T17:01:04.483Z,-9.10
2022-12-15T17:03:34.367Z,-8.70
2022-12-15T17:06:06.676Z,-8.70
2022-12-15T17:08:54.438Z,-8.30
2022-12-15T17:11:24.212Z,-8.70
2022-12-15T17:13:54.389Z,-8.90
2022-12-15T17:16:25.109Z,-6.60
2022-12-15T17:18:52.832Z,-8.80
2022-12-15T17:21:33.037Z,-8.50
2022-12-15T17:24:06.544Z,-8.60
2022-12-15T17:26:36.514Z,-8.20
2022-12-15T17:29:16.969Z,-8.40
2022-12-15T17:31:44.412Z,-8.60
2022-12-15T17:34:23.472Z,-8.20
2022-12-15T17:36:50.896Z,-8.60
2022-12-15T17:39:20.546Z,-8.60
2022-12-15T17:42:04.610Z,-8.40
2022-12-15T17:44:37.356Z,-8.40
2022-12-15T17:47:07.132Z,-8.50
2022-12-15T17:49:38.586Z,-8.50
2022-12-15T17:52:29.601Z,-8.00
2022-12-15T17:54:57.473Z,-8.90
2022-12-15T17:57:25.780Z,-9.20
2022-12-15T17:59:53.547Z,-9.30
2022-12-15T18:02:21.036Z,-9.20
2022-12-15T18:04:48.491Z,-9.10
2022-12-15T18:07:18.867Z,-9.10
2022-12-15T18:09:46.873Z,-9.00
2022-12-15T18:12:26.394Z,-8.90
2022-12-15T18:14:55.348Z,-8.70
2022-12-15T18:17:23.607Z,-8.80
2022-12-15T18:19:51.051Z,-8.90
2022-12-15T18:22:24.582Z,-8.90
2022-12-15T18:24:53.663Z,-8.70
2022-12-15T18:27:26.825Z,-8.60
2022-12-15T18:29:55.252Z,-8.60
2022-12-15T18:32:25.626Z,-8.60
2022-12-15T18:34:54.027Z,-8.50
2022-12-15T18:37:23.724Z,-7.60
2022-12-15T18:39:51.126Z,-8.00
2022-12-15T18:42:21.215Z,-8.30
2022-12-15T18:44:51.744Z,-8.10
2022-12-15T18:47:22.302Z,-8.20
2022-12-15T18:49:50.026Z,-8.50
2022-12-15T18:52:20.474Z,-8.50
2022-12-15T18:54:49.557Z,-8.50
2022-12-15T18:57:38.001Z,-8.80
2022-12-15T19:00:11.551Z,-8.20
2022-12-15T19:02:39.211Z,-8.20
2022-12-15T19:05:07.411Z,-8.30
2022-12-15T19:07:36.069Z,-7.70
2022-12-15T19:10:05.171Z,-8.00
2022-12-15T19:12:32.509Z,-8.10
2022-12-15T19:15:00.169Z,-7.80
2022-12-15T19:17:45.938Z,-7.90
2022-12-15T19:20:37.595Z,-9.00
2022-12-15T19:23:07.040Z,-7.10
2022-12-15T19:25:35.322Z,-8.00
2022-12-15T19:28:02.683Z,-8.10
2022-12-15T19:30:41.435Z,-8.40
2022-12-15T19:33:10.352Z,-9.30
2022-12-15T19:35:40.161Z,-9.40
2022-12-15T19:38:08.618Z,-8.80
2022-12-15T19:40:38.106Z,-8.80
2022-12-15T19:43:05.844Z,-8.90
2022-12-15T19:45:33.812Z,-8.70
2022-12-15T19:48:01.240Z,-8.50
2022-12-15T19:50:36.295Z,-8.50
2022-12-15T19:53:15.936Z,-8.50
2022-12-15T19:55:44.269Z,-8.30
2022-12-15T19:58:32.898Z,-8.30
2022-12-15T20:01:07.791Z,-8.10
2022-12-15T20:03:36.217Z,-9.10
2022-12-15T20:06:06.524Z,-8.10
2022-12-15T20:08:37.042Z,-8.00
2022-12-15T20:11:05.210Z,-8.20
2022-12-15T20:13:32.939Z,-8.00
2022-12-15T20:16:00.625Z,-7.90
2022-12-15T20:18:28.017Z,-8.00
2022-12-15T20:20:55.750Z,-7.80
2022-12-15T20:23:26.718Z,-8.50
2022-12-15T20:25:55.937Z,-8.30
2022-12-15T20:28:26.661Z,-8.10
2022-12-15T20:30:56.287Z,-7.90
2022-12-15T20:33:23.945Z,-8.00
2022-12-15T20:35:51.809Z,-7.30
2022-12-15T20:38:28.469Z,-8.20
2022-12-15T20:40:56.881Z,-8.50
2022-12-15T20:43:25.840Z,-8.10
2022-12-15T20:46:22.901Z,-8.10
2022-12-15T20:48:52.218Z,-7.90
2022-12-15T20:51:28.778Z,-7.90
2022-12-15T20:53:58.901Z,-8.00
2022-12-15T20:56:27.576Z,-7.30
2022-12-15T20:58:57.306Z,-8.00
2022-12-15T21:01:24.664Z,-8.30
2022-12-15T21:03:55.363Z,-8.40
2022-12-15T21:06:24.097Z,-8.20
2022-12-15T21:08:51.669Z,-8.00
2022-12-15T21:11:25.312Z,-7.90
2022-12-15T21:13:54.760Z,-7.10
2022-12-15T21:16:27.835Z,-7.70
2022-12-15T21:21:49.493Z,-8.00
2022-12-15T21:24:25.434Z,-8.00
2022-12-15T21:26:53.535Z,-8.00
2022-12-15T21:29:23.551Z,-8.00
2022-12-15T21:31:51.162Z,-8.00
2022-12-15T21:34:18.527Z,-8.20
2022-12-15T21:36:49.654Z,-8.10
2022-12-15T21:39:29.871Z,-8.30
2022-12-15T21:42:20.229Z,-8.10
2022-12-15T21:44:48.020Z,-8.10
2022-12-15T21:47:25.219Z,-8.00
2022-12-15T21:49:52.836Z,-8.00
2022-12-15T21:52:27.523Z,-7.70
2022-12-15T21:54:54.860Z,-8.00
2022-12-15T21:57:22.378Z,-8.00
2022-12-15T21:59:49.719Z,-8.00
2022-12-15T22:02:27.935Z,-8.20
2022-12-15T22:04:55.358Z,-7.90
2022-12-15T22:07:22.861Z,-8.00
2022-12-15T22:09:50.441Z,-7.60
2022-12-15T22:12:23.703Z,-7.60
2022-12-15T22:14:52.195Z,-7.80
2022-12-15T22:17:22.004Z,-7.60
2022-12-15T22:19:49.757Z,-7.60
2022-12-15T22:22:17.265Z,-7.80
2022-12-15T22:24:44.913Z,-8.00
2022-12-15T22:27:21.120Z,-7.90
2022-12-15T22:29:49.536Z,-7.80
2022-12-15T22:32:17.584Z,-7.90
2022-12-15T22:34:44.958Z,-7.80
2022-12-15T22:37:12.355Z,-7.40
2022-12-15T22:39:39.874Z,-7.90
2022-12-15T22:42:14.798Z,-7.50
2022-12-15T22:44:42.221Z,-7.50
2022-12-15T22:47:10.704Z,-7.40
2022-12-15T22:49:40.426Z,-7.60
2022-12-15T22:52:21.129Z,-8.20
2022-12-15T22:54:48.574Z,-7.90
2022-12-15T22:57:29.641Z,-7.20
2022-12-15T23:00:09.615Z,-7.50
2022-12-15T23:02:43.564Z,-7.70
2022-12-15T23:05:13.797Z,-7.70
2022-12-15T23:07:41.718Z,-6.20
2022-12-15T23:10:29.763Z,-7.20
2022-12-15T23:12:57.170Z,-7.90
2022-12-15T23:15:45.893Z,-7.10
2022-12-15T23:18:14.124Z,-7.50
2022-12-15T23:20:42.948Z,-7.70
2022-12-15T23:23:10.839Z,-8.00
2022-12-15T23:25:38.539Z,-8.50
2022-12-15T23:28:06.008Z,-7.00
2022-12-15T23:30:33.409Z,-7.70
2022-12-15T23:33:00.709Z,-7.80
2022-12-15T23:35:28.156Z,-7.80
2022-12-15T23:37:55.767Z,-7.90
2022-12-15T23:40:23.108Z,-8.10
2022-12-15T23:42:50.955Z,-7.80
2022-12-15T23:45:20.538Z,-7.90
2022-12-15T23:47:47.966Z,-7.80
2022-12-15T23:50:15.305Z,-8.10
2022-12-15T23:52:42.655Z,-6.00
2022-12-15T23:55:10.288Z,-8.10
2022-12-15T23:57:39.552Z,-8.50
